createdAt,value
2022-12-22T00:02:00.107Z,22.83
2022-12-22T00:04:45.746Z,21.13
2022-12-22T00:07:31.247Z,23.08
2022-12-22T00:10:16.714Z,22.80
2022-12-22T00:13:02.234Z,21.70
2022-12-22T00:15:51.305Z,23.13
2022-12-22T00:18:36.562Z,23.05
2022-12-22T00:21:21.884Z,23.40
2022-12-22T00:24:07.076Z,23.88
2022-12-22T00:26:54.105Z,24.23
2022-12-22T00:29:40.176Z,24.58
2022-12-22T00:32:31.124Z,23.13
2022-12-22T00:35:16.826Z,22.77
2022-12-22T00:38:02.317Z,23.48
2022-12-22T00:40:48.218Z,22.25
2022-12-22T00:43:33.595Z,23.33
2022-12-22T00:46:21.358Z,23.48
2022-12-22T00:49:07.256Z,23.15
2022-12-22T00:51:53.163Z,22.85
2022-12-22T00:54:40.629Z,23.77
2022-12-22T00:57:34.493Z,22.30
2022-12-22T01:00:20.637Z,21.70
2022-12-22T01:03:06.115Z,21.15
2022-12-22T01:05:51.426Z,22.05
2022-12-22T01:08:36.684Z,23.48
2022-12-22T01:11:22.250Z,21.88
2022-12-22T01:14:07.590Z,22.15
2022-12-22T01:16:52.782Z,22.17
2022-12-22T01:19:38.116Z,22.00
2022-12-22T01:22:30.741Z,21.80
2022-12-22T01:25:15.918Z,19.88
2022-12-22T01:28:01.311Z,19.70
2022-12-22T01:30:46.652Z,19.35
2022-12-22T01:33:32.530Z,19.98
2022-12-22T01:36:17.789Z,20.92
2022-12-22T01:39:03.107Z,20.38
2022-12-22T01:41:48.599Z,19.67
2022-12-22T01:44:36.067Z,19.60
2022-12-22T01:47:46.671Z,20.38
2022-12-22T01:50:54.332Z,20.30
2022-12-22T01:53:43.862Z,19.00
2022-12-22T01:56:30.227Z,19.38
2022-12-22T01:59:18.683Z,20.42
2022-12-22T02:02:04.707Z,20.15
2022-12-22T02:04:55.988Z,20.83
2022-12-22T02:08:19.827Z,20.17
2022-12-22T02:11:52.681Z,20.20
2022-12-22T02:14:52.388Z,19.13
2022-12-22T02:17:50.242Z,19.63
2022-12-22T02:20:55.711Z,17.98
2022-12-22T02:24:18.705Z,19.60
2022-12-22T02:27:09.904Z,18.75
2022-12-22T02:30:09.456Z,19.88
2022-12-22T02:33:07.261Z,18.48
2022-12-22T02:36:31.766Z,19.23
2022-12-22T02:39:38.153Z,18.38
2022-12-22T02:42:50.833Z,18.48
2022-12-22T02:45:42.490Z,18.85
2022-12-22T02:48:34.443Z,18.20
2022-12-22T02:51:25.339Z,18.80
2022-12-22T02:54:13.689Z,18.02
2022-12-22T02:56:59.972Z,18.13
2022-12-22T02:59:47.612Z,18.25
2022-12-22T03:02:33.313Z,16.95
2022-12-22T03:05:18.876Z,16.58
2022-12-22T03:08:08.176Z,17.58
2022-12-22T03:10:54.590Z,17.45
2022-12-22T03:13:40.547Z,16.80
2022-12-22T03:16:25.929Z,16.30
2022-12-22T03:19:11.259Z,16.30
2022-12-22T03:21:56.585Z,16.85
2022-12-22T03:24:41.845Z,16.50
2022-12-22T03:27:08.592Z,16.30
2022-12-22T03:29:35.327Z,15.20
2022-12-22T03:32:02.186Z,15.35
2022-12-22T03:34:29.179Z,17.40
2022-12-22T03:36:55.907Z,16.95
2022-12-22T03:39:22.651Z,17.02
2022-12-22T03:42:08.268Z,15.68
2022-12-22T03:44:53.742Z,15.82
2022-12-22T03:47:20.462Z,16.83
2022-12-22T03:49:47.184Z,16.77
2022-12-22T03:52:13.969Z,16.02
2022-12-22T03:54:40.716Z,15.60
2022-12-22T03:57:07.475Z,14.73
2022-12-22T03:59:34.229Z,15.93
2022-12-22T04:02:01.098Z,15.05
2022-12-22T04:04:28.063Z,15.82
2022-12-22T04:06:55.505Z,15.38
2022-12-22T04:09:22.704Z,14.85
2022-12-22T04:12:07.856Z,16.70
2022-12-22T04:14:35.190Z,16.00
2022-12-22T04:17:03.667Z,15.60
2022-12-22T04:19:30.955Z,15.57
2022-12-22T04:21:57.826Z,15.90
2022-12-22T04:24:24.924Z,14.25
2022-12-22T04:26:52.308Z,15.23
2022-12-22T04:29:19.023Z,15.60
2022-12-22T04:31:45.850Z,15.82
2022-12-22T04:34:12.617Z,14.45
2022-12-22T04:36:39.404Z,15.30
2022-12-22T04:39:06.148Z,15.02
2022-12-22T04:41:32.891Z,14.48
2022-12-22T04:43:59.597Z,14.48
2022-12-22T04:46:26.400Z,13.77
2022-12-22T04:48:57.915Z,13.90
2022-12-22T04:51:27.107Z,13.43
2022-12-22T04:53:53.807Z,13.40
2022-12-22T04:56:20.549Z,14.13
2022-12-22T04:58:47.259Z,14.23
2022-12-22T05:01:16.251Z,13.40
2022-12-22T05:03:43.455Z,13.27
2022-12-22T05:06:11.171Z,13.60
2022-12-22T05:08:38.059Z,14.48
2022-12-22T05:11:05.309Z,14.55
2022-12-22T05:13:32.884Z,13.63
2022-12-22T05:16:11.735Z,13.95
2022-12-22T05:18:39.591Z,13.35
2022-12-22T05:21:09.630Z,14.00
2022-12-22T05:23:36.400Z,14.60
2022-12-22T05:26:03.487Z,14.48
2022-12-22T05:28:32.051Z,14.43
2022-12-22T05:31:04.603Z,12.45
2022-12-22T05:33:31.820Z,13.52
2022-12-22T05:35:58.671Z,13.07
2022-12-22T05:38:25.779Z,13.25
2022-12-22T05:40:54.634Z,13.57
2022-12-22T05:43:25.043Z,13.33
2022-12-22T05:45:53.105Z,13.40
2022-12-22T05:48:27.420Z,12.00
2022-12-22T05:50:56.403Z,12.18
2022-12-22T05:53:23.109Z,12.20
2022-12-22T05:55:49.868Z,11.88
2022-12-22T05:58:16.616Z,12.88
2022-12-22T06:00:43.325Z,12.90
2022-12-22T06:03:10.127Z,12.15
2022-12-22T06:05:37.095Z,11.70
2022-12-22T06:08:04.008Z,11.98
2022-12-22T06:10:30.746Z,11.70
2022-12-22T06:12:57.445Z,11.77
2022-12-22T06:15:24.218Z,11.25
2022-12-22T06:17:50.934Z,9.93
2022-12-22T06:20:17.746Z,10.40
2022-12-22T06:22:44.468Z,10.65
2022-12-22T06:25:17.529Z,10.95
2022-12-22T06:27:45.242Z,11.15
2022-12-22T06:30:12.265Z,11.93
2022-12-22T06:32:39.645Z,11.18
2022-12-22T06:35:07.960Z,11.35
2022-12-22T06:37:34.714Z,11.02
2022-12-22T06:40:01.533Z,10.90
2022-12-22T06:42:47.127Z,10.07
2022-12-22T06:45:13.915Z,9.55
2022-12-22T06:47:40.662Z,9.32
2022-12-22T06:50:08.210Z,10.10
2022-12-22T06:52:35.232Z,10.70
2022-12-22T06:55:04.746Z,10.05
2022-12-22T06:57:31.484Z,9.35
2022-12-22T06:59:58.240Z,8.77
2022-12-22T07:02:25.370Z,8.60
2022-12-22T07:04:52.409Z,7.78
2022-12-22T07:07:19.391Z,7.88
2022-12-22T07:09:46.218Z,8.30
2022-12-22T07:12:13.460Z,6.97
2022-12-22T07:14:40.801Z,7.80
2022-12-22T07:17:09.047Z,8.45
2022-12-22T07:19:35.826Z,8.27
2022-12-22T07:22:02.610Z,8.18
2022-12-22T07:24:29.684Z,8.63
2022-12-22T07:26:56.415Z,8.02
2022-12-22T07:29:23.729Z,8.05
2022-12-22T07:31:50.767Z,8.43
2022-12-22T07:34:17.578Z,8.80
2022-12-22T07:36:44.329Z,8.77
2022-12-22T07:39:12.581Z,9.57
2022-12-22T07:41:58.467Z,8.05
2022-12-22T07:44:25.264Z,9.25
2022-12-22T07:46:52.135Z,9.52
2022-12-22T07:49:37.452Z,8.10
2022-12-22T07:52:04.618Z,8.23
2022-12-22T07:54:35.235Z,8.88
2022-12-22T07:59:31.768Z,8.10
2022-12-22T08:01:58.605Z,8.32
2022-12-22T08:04:25.548Z,7.38
2022-12-22T08:06:52.505Z,6.97
2022-12-22T08:09:21.628Z,6.70
2022-12-22T08:11:49.250Z,6.53
2022-12-22T08:14:16.064Z,6.40
2022-12-22T08:16:42.832Z,5.82
2022-12-22T08:19:09.733Z,5.90
2022-12-22T08:21:36.463Z,5.43
2022-12-22T08:24:03.254Z,5.18
2022-12-22T08:26:43.791Z,6.05
2022-12-22T08:29:32.241Z,5.20
2022-12-22T08:32:00.606Z,5.20
2022-12-22T08:34:27.460Z,4.57
2022-12-22T08:36:57.787Z,4.50
2022-12-22T08:39:27.083Z,4.63
2022-12-22T08:41:54.266Z,4.25
2022-12-22T08:44:24.069Z,3.95
2022-12-22T08:46:51.855Z,4.35
2022-12-22T08:49:18.879Z,3.40
2022-12-22T08:51:46.100Z,3.58
2022-12-22T08:54:13.343Z,3.25
2022-12-22T08:56:40.379Z,3.30
2022-12-22T08:59:08.035Z,3.60
2022-12-22T09:01:37.325Z,3.38
2022-12-22T09:04:05.181Z,3.70
2022-12-22T09:06:38.590Z,2.85
2022-12-22T09:09:11.305Z,3.00
2022-12-22T09:11:39.552Z,2.92
2022-12-22T09:14:07.107Z,3.20
2022-12-22T09:16:34.666Z,2.75
2022-12-22T09:19:01.957Z,2.80
2022-12-22T09:21:29.575Z,2.80
2022-12-22T09:23:57.262Z,2.97
2022-12-22T09:26:26.525Z,2.50
2022-12-22T09:28:53.709Z,3.00
2022-12-22T09:31:21.651Z,2.60
2022-12-22T09:33:48.948Z,2.45
2022-12-22T09:36:18.391Z,2.15
2022-12-22T09:38:45.181Z,2.75
2022-12-22T09:41:21.220Z,2.63
2022-12-22T09:43:48.308Z,1.95
2022-12-22T09:46:26.892Z,2.35
2022-12-22T09:48:54.667Z,2.33
2022-12-22T09:51:26.832Z,2.60
2022-12-22T09:53:59.044Z,2.63
2022-12-22T09:56:27.794Z,2.58
2022-12-22T09:58:54.824Z,2.70
2022-12-22T10:01:36.464Z,2.80
2022-12-22T10:04:22.223Z,2.50
2022-12-22T10:07:26.310Z,2.60
2022-12-22T10:09:53.084Z,2.80
2022-12-22T10:12:23.479Z,2.30
2022-12-22T10:14:53.440Z,2.10
2022-12-22T10:17:23.075Z,2.33
2022-12-22T10:19:53.279Z,2.13
2022-12-22T10:22:30.317Z,2.55
2022-12-22T10:25:00.428Z,2.15
2022-12-22T10:27:31.260Z,2.25
2022-12-22T10:30:18.584Z,1.92
2022-12-22T10:33:08.821Z,2.05
2022-12-22T10:35:57.165Z,1.77
2022-12-22T10:38:39.366Z,1.88
2022-12-22T10:41:12.162Z,1.73
2022-12-22T10:43:47.087Z,1.63
2022-12-22T10:46:14.583Z,2.15
2022-12-22T10:48:41.857Z,1.95
2022-12-22T10:51:11.410Z,2.30
2022-12-22T10:53:51.002Z,2.05
2022-12-22T10:56:22.515Z,2.00
2022-12-22T10:59:19.163Z,2.35
2022-12-22T11:01:46.389Z,2.08
2022-12-22T11:04:27.025Z,2.13
2022-12-22T11:06:55.623Z,2.08
2022-12-22T11:09:33.776Z,1.98
2022-12-22T11:12:24.499Z,2.20
2022-12-22T11:15:27.392Z,2.33
2022-12-22T11:18:31.918Z,2.13
2022-12-22T11:21:24.230Z,2.72
2022-12-22T11:23:58.658Z,2.08
2022-12-22T11:26:50.958Z,2.28
2022-12-22T11:29:37.103Z,2.10
2022-12-22T11:32:41.237Z,2.25
2022-12-22T11:35:33.681Z,2.33
2022-12-22T11:38:24.837Z,1.92
2022-12-22T11:41:03.425Z,2.42
2022-12-22T11:43:52.375Z,1.83
2022-12-22T11:46:54.391Z,2.65
2022-12-22T11:49:50.661Z,1.80
2022-12-22T11:52:33.672Z,2.13
2022-12-22T11:55:17.235Z,2.05
2022-12-22T11:58:27.961Z,1.90
2022-12-22T12:01:31.319Z,2.08
2022-12-22T12:04:10.232Z,2.05
2022-12-22T12:07:14.758Z,2.08
2022-12-22T12:10:03.663Z,1.80
2022-12-22T12:12:48.363Z,2.15
2022-12-22T12:15:24.994Z,1.80
2022-12-22T12:18:14.932Z,1.70
2022-12-22T12:21:22.966Z,2.10
2022-12-22T12:23:52.511Z,1.50
2022-12-22T12:26:32.764Z,1.80
2022-12-22T12:29:05.245Z,1.90
2022-12-22T12:31:38.664Z,1.57
2022-12-22T12:36:50.829Z,1.80
2022-12-22T12:39:33.636Z,1.60
2022-12-22T12:42:24.745Z,1.80
2022-12-22T12:44:53.480Z,1.40
2022-12-22T12:47:32.266Z,1.70
2022-12-22T12:50:03.515Z,1.58
2022-12-22T12:52:53.510Z,1.67
2022-12-22T12:55:28.061Z,1.30
2022-12-22T12:58:00.863Z,1.13
2022-12-22T13:00:33.766Z,1.60
2022-12-22T13:04:01.188Z,0.85
2022-12-22T13:06:49.401Z,1.20
2022-12-22T13:12:48.333Z,0.82
2022-12-22T13:15:31.998Z,1.40
2022-12-22T13:17:59.890Z,1.45
2022-12-22T13:20:35.947Z,1.10
2022-12-22T13:23:10.450Z,1.15
2022-12-22T13:25:42.491Z,1.20
2022-12-22T13:28:21.045Z,1.60
2022-12-22T13:30:50.274Z,1.30
2022-12-22T13:33:20.898Z,1.23
2022-12-22T13:35:53.429Z,1.55
2022-12-22T13:38:30.147Z,1.35
2022-12-22T13:40:59.615Z,1.30
2022-12-22T13:43:29.101Z,1.77
2022-12-22T13:45:58.696Z,1.40
2022-12-22T13:48:34.871Z,1.65
2022-12-22T13:51:09.231Z,1.50
2022-12-22T13:56:38.131Z,1.63
2022-12-22T13:59:16.576Z,1.20
2022-12-22T14:02:01.559Z,1.42
2022-12-22T14:04:29.973Z,2.55
2022-12-22T14:06:56.735Z,1.30
2022-12-22T14:09:25.842Z,1.60
2022-12-22T14:12:01.847Z,1.40
2022-12-22T14:14:34.894Z,1.50
2022-12-22T14:17:02.695Z,1.70
2022-12-22T14:19:36.025Z,1.20
2022-12-22T14:22:09.199Z,1.50
2022-12-22T14:24:58.915Z,1.77
2022-12-22T14:27:47.055Z,1.65
2022-12-22T14:30:18.083Z,1.70
2022-12-22T14:32:54.428Z,1.30
2022-12-22T14:35:22.216Z,1.25
2022-12-22T14:37:54.732Z,1.02
2022-12-22T14:40:38.365Z,1.42
2022-12-22T14:43:16.707Z,1.42
2022-12-22T14:45:44.645Z,1.27
2022-12-22T14:48:27.041Z,1.30
2022-12-22T14:50:55.000Z,1.38
2022-12-22T14:53:36.089Z,1.17
2022-12-22T14:56:02.812Z,1.35
2022-12-22T14:58:33.192Z,1.10
2022-12-22T15:01:22.583Z,1.20
2022-12-22T15:04:15.844Z,1.20
2022-12-22T15:06:45.620Z,1.35
2022-12-22T15:09:15.498Z,1.13
2022-12-22T15:11:45.465Z,1.25
2022-12-22T15:14:15.565Z,1.38
2022-12-22T15:16:43.607Z,1.27
2022-12-22T15:19:17.620Z,1.67
2022-12-22T15:21:44.810Z,1.35
2022-12-22T15:24:13.172Z,2.00
2022-12-22T15:26:39.893Z,1.15
2022-12-22T15:29:06.835Z,2.55
2022-12-22T15:31:33.890Z,1.15
2022-12-22T15:34:03.253Z,1.30
2022-12-22T15:36:30.280Z,1.10
2022-12-22T15:38:57.039Z,1.08
2022-12-22T15:41:24.113Z,1.05
2022-12-22T15:43:57.144Z,1.30
2022-12-22T15:46:25.392Z,1.17
2022-12-22T15:48:52.705Z,0.88
2022-12-22T15:51:28.933Z,0.90
2022-12-22T15:54:03.505Z,1.17
2022-12-22T15:56:33.600Z,1.10
2022-12-22T15:59:02.049Z,1.10
2022-12-22T16:01:29.013Z,1.45
2022-12-22T16:03:55.944Z,1.30
2022-12-22T16:06:22.805Z,0.85
2022-12-22T16:08:53.257Z,0.90
2022-12-22T16:11:20.271Z,0.90
2022-12-22T16:13:49.067Z,0.70
2022-12-22T16:16:16.153Z,0.98
2022-12-22T16:18:43.039Z,0.82
2022-12-22T16:21:18.860Z,0.80
2022-12-22T16:23:48.096Z,0.70
2022-12-22T16:26:19.261Z,0.80
2022-12-22T16:28:46.692Z,0.70
2022-12-22T16:35:28.736Z,0.80
2022-12-22T16:37:58.887Z,0.85
2022-12-22T16:40:27.292Z,1.08
2022-12-22T16:45:47.872Z,1.23
2022-12-22T16:48:30.527Z,0.73
2022-12-22T16:50:57.298Z,0.95
2022-12-22T16:53:25.535Z,0.80
2022-12-22T16:55:52.374Z,1.00
2022-12-22T16:58:19.134Z,1.20
2022-12-22T17:00:45.969Z,0.90
2022-12-22T17:03:23.286Z,0.93
2022-12-22T17:05:56.083Z,1.13
2022-12-22T17:08:27.105Z,1.23
2022-12-22T17:10:56.600Z,1.30
2022-12-22T17:13:23.808Z,1.42
2022-12-22T17:15:50.959Z,1.48
2022-12-22T17:18:20.461Z,1.10
2022-12-22T17:20:50.129Z,1.50
2022-12-22T17:23:39.291Z,1.27
2022-12-22T17:26:10.210Z,1.40
2022-12-22T17:28:38.404Z,1.45
2022-12-22T17:31:05.635Z,1.30
2022-12-22T17:33:32.470Z,1.77
2022-12-22T17:36:00.543Z,1.15
2022-12-22T17:38:28.854Z,1.33
2022-12-22T17:40:57.438Z,1.38
2022-12-22T17:43:24.377Z,1.40
2022-12-22T17:45:52.263Z,1.48
2022-12-22T17:48:19.047Z,1.40
2022-12-22T17:50:50.250Z,1.40
2022-12-22T17:53:19.621Z,1.50
2022-12-22T17:56:07.912Z,1.33
2022-12-22T17:58:34.431Z,1.10
2022-12-22T18:01:01.461Z,1.38
2022-12-22T18:03:28.381Z,1.30
2022-12-22T18:05:55.449Z,1.38
2022-12-22T18:08:22.395Z,1.00
2022-12-22T18:10:49.772Z,1.38
2022-12-22T18:13:21.170Z,1.30
2022-12-22T18:15:48.412Z,1.45
2022-12-22T18:18:16.518Z,1.30
2022-12-22T18:20:44.502Z,0.90
2022-12-22T18:23:18.486Z,1.10
2022-12-22T18:25:45.315Z,1.17
2022-12-22T18:28:16.542Z,1.13
2022-12-22T18:30:43.501Z,1.00
2022-12-22T18:33:10.992Z,1.25
2022-12-22T18:35:38.830Z,1.95
2022-12-22T18:38:06.646Z,1.98
2022-12-22T18:40:38.886Z,1.23
2022-12-22T18:43:14.642Z,1.25
2022-12-22T18:45:41.425Z,1.10
2022-12-22T18:48:09.480Z,1.33
2022-12-22T18:50:36.740Z,2.88
2022-12-22T18:53:27.397Z,3.47
2022-12-22T18:55:55.066Z,2.08
2022-12-22T18:58:22.310Z,1.77
2022-12-22T19:00:50.259Z,1.85
2022-12-22T19:03:23.975Z,1.52
2022-12-22T19:05:51.459Z,1.73
2022-12-22T19:08:24.709Z,1.98
2022-12-22T19:10:54.970Z,2.00
2022-12-22T19:13:28.787Z,1.85
2022-12-22T19:15:56.296Z,2.15
2022-12-22T19:18:27.251Z,2.00
2022-12-22T19:20:55.380Z,2.13
2022-12-22T19:23:24.467Z,2.03
2022-12-22T19:25:54.338Z,2.08
2022-12-22T19:28:27.071Z,2.67
2022-12-22T19:30:55.532Z,2.45
2022-12-22T19:33:43.042Z,2.70
2022-12-22T19:36:22.326Z,2.55
2022-12-22T19:38:51.122Z,3.58
2022-12-22T19:41:33.465Z,2.85
2022-12-22T19:44:00.593Z,2.92
2022-12-22T19:46:32.512Z,2.38
2022-12-22T19:48:59.795Z,2.42
2022-12-22T19:51:26.611Z,2.08
2022-12-22T19:53:54.253Z,2.60
2022-12-22T19:56:27.193Z,2.55
2022-12-22T19:58:55.248Z,3.22
2022-12-22T20:01:22.225Z,2.92
2022-12-22T20:03:49.130Z,2.35
2022-12-22T20:06:17.511Z,2.92
2022-12-22T20:08:44.892Z,3.10
2022-12-22T20:11:16.459Z,2.65
2022-12-22T20:13:43.826Z,2.83
2022-12-22T20:16:13.223Z,2.78
2022-12-22T20:18:40.546Z,2.78
2022-12-22T20:21:25.416Z,2.55
2022-12-22T20:23:53.797Z,2.42
2022-12-22T20:26:23.267Z,2.63
2022-12-22T20:28:50.630Z,2.42
2022-12-22T20:31:19.501Z,3.22
2022-12-22T20:33:46.653Z,3.15
2022-12-22T20:36:29.459Z,2.85
2022-12-22T20:38:58.360Z,2.42
2022-12-22T20:41:25.795Z,2.97
2022-12-22T20:43:53.495Z,2.30
2022-12-22T20:46:24.589Z,2.90
2022-12-22T20:48:53.765Z,2.83
2022-12-22T20:51:22.194Z,3.17
2022-12-22T20:53:49.389Z,3.33
2022-12-22T20:56:33.682Z,3.10
2022-12-22T20:59:11.620Z,3.20
2022-12-22T21:01:38.603Z,3.15
2022-12-22T21:04:05.580Z,2.88
2022-12-22T21:06:36.541Z,2.30
2022-12-22T21:09:04.730Z,3.13
2022-12-22T21:11:32.077Z,2.55
2022-12-22T21:13:59.375Z,3.17
2022-12-22T21:16:29.923Z,2.97
2022-12-22T21:18:56.811Z,3.08
2022-12-22T21:21:23.621Z,2.80
2022-12-22T21:23:50.416Z,2.90
2022-12-22T21:26:34.073Z,2.63
2022-12-22T21:31:33.290Z,2.67
2022-12-22T21:34:00.137Z,3.85
2022-12-22T21:36:31.122Z,3.53
2022-12-22T21:39:00.776Z,3.13
2022-12-22T21:41:46.379Z,3.50
2022-12-22T21:44:13.323Z,3.17
2022-12-22T21:46:43.683Z,3.67
2022-12-22T21:49:22.000Z,3.72
2022-12-22T21:51:50.161Z,3.67
2022-12-22T21:54:18.271Z,3.53
2022-12-22T21:56:45.844Z,3.53
2022-12-22T21:59:13.370Z,3.83
2022-12-22T22:01:41.526Z,4.15
2022-12-22T22:04:09.145Z,4.18
2022-12-22T22:06:35.874Z,4.70
2022-12-22T22:09:05.095Z,4.07
2022-12-22T22:11:32.079Z,4.28
2022-12-22T22:13:59.071Z,5.10
2022-12-22T22:16:25.921Z,4.60
2022-12-22T22:18:52.774Z,4.13
2022-12-22T22:21:19.471Z,4.50
2022-12-22T22:23:46.186Z,4.10
2022-12-22T22:26:13.052Z,4.07
2022-12-22T22:28:39.822Z,4.70
2022-12-22T22:31:11.525Z,3.17
2022-12-22T22:33:38.531Z,3.03
2022-12-22T22:36:08.861Z,3.47
2022-12-22T22:38:36.306Z,3.75
2022-12-22T22:41:03.230Z,3.42
2022-12-22T22:43:30.042Z,3.92
2022-12-22T22:45:56.821Z,3.63
2022-12-22T22:48:24.245Z,3.75
2022-12-22T22:50:51.374Z,4.05
2022-12-22T22:53:18.122Z,4.95
2022-12-22T22:55:44.875Z,4.30
2022-12-22T22:58:11.756Z,3.50
2022-12-22T23:00:39.277Z,3.70
2022-12-22T23:03:06.375Z,4.05
2022-12-22T23:05:33.492Z,3.17
2022-12-22T23:08:00.336Z,3.38
2022-12-22T23:10:27.375Z,3.15
2022-12-22T23:12:54.920Z,3.88
2022-12-22T23:15:21.619Z,3.30
2022-12-22T23:17:50.314Z,3.80
2022-12-22T23:20:17.084Z,3.30
2022-12-22T23:22:43.813Z,3.17
2022-12-22T23:25:10.656Z,3.85
2022-12-22T23:27:37.379Z,2.78
2022-12-22T23:30:04.679Z,3.17
2022-12-22T23:32:31.528Z,3.17
2022-12-22T23:34:58.258Z,3.10
2022-12-22T23:37:25.093Z,3.08
2022-12-22T23:39:51.842Z,4.00
2022-12-22T23:42:18.575Z,3.50
2022-12-22T23:44:45.275Z,3.25
2022-12-22T23:47:12.097Z,3.42
2022-12-22T23:49:38.886Z,3.33
2022-12-22T23:52:05.585Z,3.30
2022-12-22T23:54:32.341Z,3.10
2022-12-22T23:56:59.096Z,3.20
2022-12-22T23:59:25.803Z,3.63
